sensor_id;sensor_type;location;lat;lon;timestamp;P1;durP1;ratioP1;P2;durP2;ratioP2
18166;SDS011;9208;42.688;23.404;2023-05-10T00:02:01;6.40;;;5.80;;
18166;SDS011;9208;42.688;23.404;2023-05-10T00:04:26;5.63;;;5.23;;
18166;SDS011;9208;42.688;23.404;2023-05-10T00:06:53;6.63;;;6.13;;
18166;SDS011;9208;42.688;23.404;2023-05-10T00:09:18;6.10;;;5.50;;
18166;SDS011;9208;42.688;23.404;2023-05-10T00:11:44;6.50;;;6.00;;
18166;SDS011;9208;42.688;23.404;2023-05-10T00:14:09;6.97;;;6.30;;
18166;SDS011;9208;42.688;23.404;2023-05-10T00:16:35;6.23;;;5.73;;
18166;SDS011;9208;42.688;23.404;2023-05-10T00:19:00;6.37;;;5.87;;
18166;SDS011;9208;42.688;23.404;2023-05-10T00:21:26;7.43;;;6.07;;
18166;SDS011;9208;42.688;23.404;2023-05-10T00:23:53;6.07;;;5.57;;
18166;SDS011;9208;42.688;23.404;2023-05-10T00:26:18;5.67;;;5.13;;
18166;SDS011;9208;42.688;23.404;2023-05-10T00:28:44;5.37;;;4.97;;
18166;SDS011;9208;42.688;23.404;2023-05-10T00:31:09;5.50;;;5.10;;
18166;SDS011;9208;42.688;23.404;2023-05-10T00:33:35;5.93;;;5.43;;
18166;SDS011;9208;42.688;23.404;2023-05-10T00:36:00;6.07;;;5.57;;
18166;SDS011;9208;42.688;23.404;2023-05-10T00:38:25;6.13;;;5.40;;
18166;SDS011;9208;42.688;23.404;2023-05-10T00:40:51;5.97;;;5.50;;
18166;SDS011;9208;42.688;23.404;2023-05-10T00:43:17;6.30;;;5.80;;
18166;SDS011;9208;42.688;23.404;2023-05-10T00:45:43;5.90;;;5.50;;
18166;SDS011;9208;42.688;23.404;2023-05-10T00:48:08;6.93;;;6.37;;
18166;SDS011;9208;42.688;23.404;2023-05-10T00:50:34;6.83;;;6.23;;
18166;SDS011;9208;42.688;23.404;2023-05-10T00:53:00;6.50;;;6.00;;
18166;SDS011;9208;42.688;23.404;2023-05-10T00:55:27;6.60;;;6.10;;
18166;SDS011;9208;42.688;23.404;2023-05-10T00:57:53;6.67;;;6.10;;
18166;SDS011;9208;42.688;23.404;2023-05-10T01:00:18;7.23;;;6.67;;
18166;SDS011;9208;42.688;23.404;2023-05-10T01:02:44;6.83;;;6.33;;
18166;SDS011;9208;42.688;23.404;2023-05-10T01:05:11;6.73;;;6.23;;
18166;SDS011;9208;42.688;23.404;2023-05-10T01:07:37;6.73;;;6.23;;
18166;SDS011;9208;42.688;23.404;2023-05-10T01:10:04;7.20;;;6.60;;
18166;SDS011;9208;42.688;23.404;2023-05-10T01:12:34;7.30;;;6.60;;
18166;SDS011;9208;42.688;23.404;2023-05-10T01:15:03;7.10;;;6.60;;
18166;SDS011;9208;42.688;23.404;2023-05-10T01:17:30;6.90;;;6.30;;
18166;SDS011;9208;42.688;23.404;2023-05-10T01:19:56;7.00;;;6.30;;
18166;SDS011;9208;42.688;23.404;2023-05-10T01:28:12;6.17;;;5.67;;
18166;SDS011;9208;42.688;23.404;2023-05-10T01:33:49;5.90;;;5.30;;
18166;SDS011;9208;42.688;23.404;2023-05-10T01:42:44;5.17;;;4.80;;
18166;SDS011;9208;42.688;23.404;2023-05-10T01:47:54;4.50;;;4.20;;
18166;SDS011;9208;42.688;23.404;2023-05-10T01:50:40;5.20;;;4.80;;
18166;SDS011;9208;42.688;23.404;2023-05-10T01:53:08;4.77;;;4.47;;
18166;SDS011;9208;42.688;23.404;2023-05-10T01:55:47;5.00;;;4.60;;
18166;SDS011;9208;42.688;23.404;2023-05-10T02:01:12;5.20;;;4.80;;
18166;SDS011;9208;42.688;23.404;2023-05-10T02:03:38;4.93;;;4.40;;
18166;SDS011;9208;42.688;23.404;2023-05-10T02:06:06;5.07;;;4.67;;
18166;SDS011;9208;42.688;23.404;2023-05-10T02:08:34;5.93;;;4.40;;
18166;SDS011;9208;42.688;23.404;2023-05-10T02:11:02;5.83;;;4.63;;
18166;SDS011;9208;42.688;23.404;2023-05-10T02:13:28;4.60;;;4.30;;
18166;SDS011;9208;42.688;23.404;2023-05-10T02:15:56;4.47;;;4.17;;
18166;SDS011;9208;42.688;23.404;2023-05-10T02:18:22;4.23;;;3.93;;
18166;SDS011;9208;42.688;23.404;2023-05-10T02:20:50;4.70;;;4.30;;
18166;SDS011;9208;42.688;23.404;2023-05-10T02:23:18;4.37;;;4.07;;
18166;SDS011;9208;42.688;23.404;2023-05-10T02:25:45;4.93;;;4.53;;
18166;SDS011;9208;42.688;23.404;2023-05-10T02:28:13;4.80;;;4.40;;
18166;SDS011;9208;42.688;23.404;2023-05-10T02:30:39;4.67;;;4.27;;
18166;SDS011;9208;42.688;23.404;2023-05-10T02:33:05;5.50;;;4.20;;
18166;SDS011;9208;42.688;23.404;2023-05-10T02:35:31;5.00;;;4.20;;
18166;SDS011;9208;42.688;23.404;2023-05-10T02:37:58;4.53;;;4.13;;
18166;SDS011;9208;42.688;23.404;2023-05-10T02:40:25;4.33;;;4.03;;
18166;SDS011;9208;42.688;23.404;2023-05-10T02:42:52;4.00;;;3.70;;
18166;SDS011;9208;42.688;23.404;2023-05-10T02:45:22;4.07;;;3.50;;
18166;SDS011;9208;42.688;23.404;2023-05-10T02:47:51;3.30;;;3.00;;
18166;SDS011;9208;42.688;23.404;2023-05-10T02:50:17;4.23;;;3.60;;
18166;SDS011;9208;42.688;23.404;2023-05-10T02:52:47;3.90;;;3.60;;
18166;SDS011;9208;42.688;23.404;2023-05-10T02:55:15;4.00;;;3.60;;
18166;SDS011;9208;42.688;23.404;2023-05-10T02:57:45;4.10;;;3.70;;
18166;SDS011;9208;42.688;23.404;2023-05-10T03:00:15;3.77;;;3.47;;
18166;SDS011;9208;42.688;23.404;2023-05-10T03:02:41;4.00;;;3.30;;
18166;SDS011;9208;42.688;23.404;2023-05-10T03:05:06;4.43;;;3.60;;
18166;SDS011;9208;42.688;23.404;2023-05-10T03:07:33;6.27;;;3.93;;
18166;SDS011;9208;42.688;23.404;2023-05-10T03:09:59;4.10;;;3.77;;
18166;SDS011;9208;42.688;23.404;2023-05-10T03:18:30;4.23;;;3.93;;
18166;SDS011;9208;42.688;23.404;2023-05-10T03:21:19;4.30;;;3.90;;
18166;SDS011;9208;42.688;23.404;2023-05-10T03:23:50;3.80;;;3.50;;
18166;SDS011;9208;42.688;23.404;2023-05-10T03:26:20;6.13;;;4.30;;
18166;SDS011;9208;42.688;23.404;2023-05-10T03:28:50;4.40;;;4.00;;
18166;SDS011;9208;42.688;23.404;2023-05-10T03:31:17;5.13;;;4.30;;
18166;SDS011;9208;42.688;23.404;2023-05-10T03:33:49;4.27;;;3.87;;
18166;SDS011;9208;42.688;23.404;2023-05-10T03:36:16;4.30;;;3.90;;
18166;SDS011;9208;42.688;23.404;2023-05-10T03:38:41;5.03;;;4.40;;
18166;SDS011;9208;42.688;23.404;2023-05-10T03:41:07;5.03;;;3.60;;
18166;SDS011;9208;42.688;23.404;2023-05-10T03:43:33;5.70;;;4.20;;
18166;SDS011;9208;42.688;23.404;2023-05-10T03:45:58;4.37;;;3.77;;
18166;SDS011;9208;42.688;23.404;2023-05-10T03:48:27;4.23;;;3.83;;
18166;SDS011;9208;42.688;23.404;2023-05-10T03:50:52;5.40;;;4.03;;
18166;SDS011;9208;42.688;23.404;2023-05-10T03:53:18;4.60;;;4.20;;
18166;SDS011;9208;42.688;23.404;2023-05-10T03:55:43;4.90;;;3.80;;
18166;SDS011;9208;42.688;23.404;2023-05-10T03:58:12;5.57;;;4.10;;
18166;SDS011;9208;42.688;23.404;2023-05-10T04:00:38;3.83;;;3.53;;
18166;SDS011;9208;42.688;23.404;2023-05-10T04:03:08;3.93;;;3.53;;
18166;SDS011;9208;42.688;23.404;2023-05-10T04:05:34;4.17;;;3.77;;
18166;SDS011;9208;42.688;23.404;2023-05-10T04:08:00;4.57;;;4.17;;
18166;SDS011;9208;42.688;23.404;2023-05-10T04:10:26;4.10;;;3.70;;
18166;SDS011;9208;42.688;23.404;2023-05-10T04:12:51;4.03;;;3.70;;
18166;SDS011;9208;42.688;23.404;2023-05-10T04:15:17;3.83;;;3.50;;
18166;SDS011;9208;42.688;23.404;2023-05-10T04:17:42;4.43;;;3.40;;
18166;SDS011;9208;42.688;23.404;2023-05-10T04:20:08;3.97;;;3.50;;
18166;SDS011;9208;42.688;23.404;2023-05-10T04:22:34;3.90;;;3.50;;
18166;SDS011;9208;42.688;23.404;2023-05-10T04:24:59;5.40;;;3.83;;
18166;SDS011;9208;42.688;23.404;2023-05-10T04:27:25;3.83;;;3.40;;
18166;SDS011;9208;42.688;23.404;2023-05-10T04:29:50;3.20;;;3.00;;
18166;SDS011;9208;42.688;23.404;2023-05-10T04:32:16;3.77;;;3.43;;
18166;SDS011;9208;42.688;23.404;2023-05-10T04:34:42;3.77;;;3.47;;
18166;SDS011;9208;42.688;23.404;2023-05-10T04:37:08;3.77;;;3.47;;
18166;SDS011;9208;42.688;23.404;2023-05-10T04:39:34;4.13;;;3.07;;
18166;SDS011;9208;42.688;23.404;2023-05-10T04:42:00;3.90;;;3.60;;
18166;SDS011;9208;42.688;23.404;2023-05-10T04:44:28;3.40;;;3.10;;
18166;SDS011;9208;42.688;23.404;2023-05-10T04:46:54;3.67;;;3.37;;
18166;SDS011;9208;42.688;23.404;2023-05-10T04:49:20;4.20;;;3.80;;
18166;SDS011;9208;42.688;23.404;2023-05-10T04:51:45;4.47;;;4.03;;
18166;SDS011;9208;42.688;23.404;2023-05-10T04:54:11;6.20;;;4.37;;
18166;SDS011;9208;42.688;23.404;2023-05-10T04:56:36;3.83;;;3.57;;
18166;SDS011;9208;42.688;23.404;2023-05-10T04:59:01;4.37;;;4.00;;
18166;SDS011;9208;42.688;23.404;2023-05-10T05:01:28;3.80;;;3.50;;
18166;SDS011;9208;42.688;23.404;2023-05-10T05:03:53;4.07;;;3.77;;
18166;SDS011;9208;42.688;23.404;2023-05-10T05:06:18;4.20;;;3.90;;
18166;SDS011;9208;42.688;23.404;2023-05-10T05:08:45;5.20;;;4.57;;
18166;SDS011;9208;42.688;23.404;2023-05-10T05:11:11;4.45;;;4.05;;
18166;SDS011;9208;42.688;23.404;2023-05-10T05:13:36;5.00;;;4.60;;
18166;SDS011;9208;42.688;23.404;2023-05-10T05:16:02;5.13;;;4.30;;
18166;SDS011;9208;42.688;23.404;2023-05-10T05:18:28;6.43;;;4.10;;
18166;SDS011;9208;42.688;23.404;2023-05-10T05:20:53;5.43;;;4.10;;
18166;SDS011;9208;42.688;23.404;2023-05-10T05:23:19;4.57;;;4.17;;
18166;SDS011;9208;42.688;23.404;2023-05-10T05:25:45;4.97;;;4.53;;
18166;SDS011;9208;42.688;23.404;2023-05-10T05:28:11;4.20;;;3.77;;
18166;SDS011;9208;42.688;23.404;2023-05-10T05:30:37;5.60;;;4.37;;
18166;SDS011;9208;42.688;23.404;2023-05-10T05:33:02;5.50;;;4.33;;
18166;SDS011;9208;42.688;23.404;2023-05-10T05:35:28;4.43;;;4.03;;
18166;SDS011;9208;42.688;23.404;2023-05-10T05:37:54;4.33;;;3.97;;
18166;SDS011;9208;42.688;23.404;2023-05-10T05:40:19;4.80;;;4.30;;
18166;SDS011;9208;42.688;23.404;2023-05-10T05:42:45;8.83;;;4.30;;
18166;SDS011;9208;42.688;23.404;2023-05-10T05:45:11;7.20;;;4.13;;
18166;SDS011;9208;42.688;23.404;2023-05-10T05:47:38;4.43;;;3.93;;
18166;SDS011;9208;42.688;23.404;2023-05-10T05:50:05;4.43;;;3.90;;
18166;SDS011;9208;42.688;23.404;2023-05-10T05:52:30;4.30;;;4.00;;
18166;SDS011;9208;42.688;23.404;2023-05-10T05:54:56;5.33;;;4.83;;
18166;SDS011;9208;42.688;23.404;2023-05-10T05:57:21;5.03;;;4.60;;
18166;SDS011;9208;42.688;23.404;2023-05-10T05:59:47;5.83;;;5.20;;
18166;SDS011;9208;42.688;23.404;2023-05-10T06:02:12;5.07;;;4.50;;
18166;SDS011;9208;42.688;23.404;2023-05-10T06:04:38;6.73;;;4.57;;
18166;SDS011;9208;42.688;23.404;2023-05-10T06:07:03;8.70;;;5.17;;
18166;SDS011;9208;42.688;23.404;2023-05-10T06:09:29;7.40;;;4.67;;
18166;SDS011;9208;42.688;23.404;2023-05-10T06:11:54;5.80;;;4.30;;
18166;SDS011;9208;42.688;23.404;2023-05-10T06:14:21;8.40;;;5.60;;
18166;SDS011;9208;42.688;23.404;2023-05-10T06:16:47;6.00;;;4.67;;
18166;SDS011;9208;42.688;23.404;2023-05-10T06:19:12;6.13;;;4.80;;
18166;SDS011;9208;42.688;23.404;2023-05-10T06:21:38;4.70;;;4.30;;
18166;SDS011;9208;42.688;23.404;2023-05-10T06:24:05;4.77;;;4.33;;
18166;SDS011;9208;42.688;23.404;2023-05-10T06:26:31;7.13;;;4.83;;
18166;SDS011;9208;42.688;23.404;2023-05-10T06:28:57;6.87;;;4.67;;
18166;SDS011;9208;42.688;23.404;2023-05-10T06:31:22;5.63;;;4.63;;
18166;SDS011;9208;42.688;23.404;2023-05-10T06:33:48;6.90;;;4.83;;
18166;SDS011;9208;42.688;23.404;2023-05-10T06:36:13;7.27;;;4.70;;
18166;SDS011;9208;42.688;23.404;2023-05-10T06:38:39;8.97;;;4.93;;
18166;SDS011;9208;42.688;23.404;2023-05-10T06:41:05;10.57;;;4.73;;
18166;SDS011;9208;42.688;23.404;2023-05-10T06:43:30;7.07;;;4.27;;
18166;SDS011;9208;42.688;23.404;2023-05-10T06:45:56;9.17;;;5.47;;
18166;SDS011;9208;42.688;23.404;2023-05-10T06:48:22;10.80;;;5.50;;
18166;SDS011;9208;42.688;23.404;2023-05-10T06:50:47;7.93;;;5.80;;
18166;SDS011;9208;42.688;23.404;2023-05-10T06:53:13;6.77;;;5.60;;
18166;SDS011;9208;42.688;23.404;2023-05-10T06:55:39;5.90;;;4.90;;
18166;SDS011;9208;42.688;23.404;2023-05-10T06:58:04;4.87;;;4.27;;
18166;SDS011;9208;42.688;23.404;2023-05-10T07:00:31;5.27;;;4.60;;
18166;SDS011;9208;42.688;23.404;2023-05-10T07:02:56;5.17;;;4.67;;
18166;SDS011;9208;42.688;23.404;2023-05-10T07:05:22;6.00;;;4.43;;
18166;SDS011;9208;42.688;23.404;2023-05-10T07:07:47;4.87;;;4.47;;
18166;SDS011;9208;42.688;23.404;2023-05-10T07:10:13;5.77;;;4.93;;
18166;SDS011;9208;42.688;23.404;2023-05-10T07:12:38;4.93;;;4.20;;
18166;SDS011;9208;42.688;23.404;2023-05-10T07:15:04;12.80;;;5.50;;
18166;SDS011;9208;42.688;23.404;2023-05-10T07:17:30;8.47;;;5.57;;
18166;SDS011;9208;42.688;23.404;2023-05-10T07:19:55;5.07;;;4.67;;
18166;SDS011;9208;42.688;23.404;2023-05-10T07:22:21;5.10;;;4.60;;
18166;SDS011;9208;42.688;23.404;2023-05-10T07:24:46;5.07;;;4.40;;
18166;SDS011;9208;42.688;23.404;2023-05-10T07:27:11;6.67;;;4.30;;
18166;SDS011;9208;42.688;23.404;2023-05-10T07:29:38;4.87;;;4.37;;
18166;SDS011;9208;42.688;23.404;2023-05-10T07:32:03;4.77;;;3.97;;
18166;SDS011;9208;42.688;23.404;2023-05-10T07:34:30;4.70;;;4.27;;
18166;SDS011;9208;42.688;23.404;2023-05-10T07:36:59;4.63;;;4.10;;
18166;SDS011;9208;42.688;23.404;2023-05-10T07:39:26;6.40;;;3.97;;
18166;SDS011;9208;42.688;23.404;2023-05-10T07:41:52;4.53;;;3.97;;
18166;SDS011;9208;42.688;23.404;2023-05-10T07:44:17;4.47;;;4.03;;
18166;SDS011;9208;42.688;23.404;2023-05-10T07:46:44;8.93;;;5.07;;
18166;SDS011;9208;42.688;23.404;2023-05-10T07:49:09;7.07;;;4.87;;
18166;SDS011;9208;42.688;23.404;2023-05-10T07:51:34;7.30;;;4.93;;
18166;SDS011;9208;42.688;23.404;2023-05-10T07:54:00;5.73;;;4.80;;
18166;SDS011;9208;42.688;23.404;2023-05-10T07:56:28;5.07;;;4.50;;
18166;SDS011;9208;42.688;23.404;2023-05-10T07:58:58;6.93;;;5.00;;
18166;SDS011;9208;42.688;23.404;2023-05-10T08:01:24;9.50;;;5.20;;
18166;SDS011;9208;42.688;23.404;2023-05-10T08:03:50;7.67;;;4.43;;
18166;SDS011;9208;42.688;23.404;2023-05-10T08:06:19;7.47;;;5.10;;
18166;SDS011;9208;42.688;23.404;2023-05-10T08:08:45;9.33;;;4.73;;
18166;SDS011;9208;42.688;23.404;2023-05-10T08:11:14;5.70;;;4.63;;
18166;SDS011;9208;42.688;23.404;2023-05-10T08:13:41;6.63;;;4.83;;
18166;SDS011;9208;42.688;23.404;2023-05-10T08:16:06;6.67;;;5.70;;
18166;SDS011;9208;42.688;23.404;2023-05-10T08:18:32;5.97;;;5.37;;
18166;SDS011;9208;42.688;23.404;2023-05-10T08:20:57;6.27;;;5.67;;
18166;SDS011;9208;42.688;23.404;2023-05-10T08:23:23;9.13;;;5.80;;
18166;SDS011;9208;42.688;23.404;2023-05-10T08:25:48;7.67;;;5.20;;
18166;SDS011;9208;42.688;23.404;2023-05-10T08:28:14;6.87;;;5.00;;
18166;SDS011;9208;42.688;23.404;2023-05-10T08:30:39;7.60;;;5.67;;
18166;SDS011;9208;42.688;23.404;2023-05-10T08:33:05;5.83;;;5.23;;
18166;SDS011;9208;42.688;23.404;2023-05-10T08:35:30;5.10;;;4.60;;
18166;SDS011;9208;42.688;23.404;2023-05-10T08:37:56;9.03;;;5.10;;
18166;SDS011;9208;42.688;23.404;2023-05-10T08:40:21;5.97;;;5.10;;
18166;SDS011;9208;42.688;23.404;2023-05-10T08:42:58;6.43;;;5.40;;
18166;SDS011;9208;42.688;23.404;2023-05-10T08:45:36;8.47;;;5.33;;
18166;SDS011;9208;42.688;23.404;2023-05-10T08:48:04;11.83;;;5.83;;
18166;SDS011;9208;42.688;23.404;2023-05-10T08:50:31;7.13;;;5.50;;
18166;SDS011;9208;42.688;23.404;2023-05-10T08:53:00;8.33;;;6.00;;
18166;SDS011;9208;42.688;23.404;2023-05-10T08:55:32;7.30;;;5.27;;
18166;SDS011;9208;42.688;23.404;2023-05-10T08:57:59;7.33;;;5.33;;
18166;SDS011;9208;42.688;23.404;2023-05-10T09:00:25;5.20;;;4.70;;
18166;SDS011;9208;42.688;23.404;2023-05-10T09:02:52;5.07;;;4.67;;
18166;SDS011;9208;42.688;23.404;2023-05-10T09:05:17;6.47;;;4.80;;
18166;SDS011;9208;42.688;23.404;2023-05-10T09:07:43;5.37;;;4.87;;
18166;SDS011;9208;42.688;23.404;2023-05-10T09:10:09;5.40;;;4.87;;
18166;SDS011;9208;42.688;23.404;2023-05-10T09:12:36;11.77;;;5.47;;
18166;SDS011;9208;42.688;23.404;2023-05-10T09:15:02;6.93;;;5.53;;
18166;SDS011;9208;42.688;23.404;2023-05-10T09:17:29;8.90;;;6.60;;
18166;SDS011;9208;42.688;23.404;2023-05-10T09:19:58;7.67;;;6.20;;
18166;SDS011;9208;42.688;23.404;2023-05-10T09:22:25;8.10;;;6.27;;
18166;SDS011;9208;42.688;23.404;2023-05-10T09:27:48;7.00;;;6.30;;
18166;SDS011;9208;42.688;23.404;2023-05-10T09:30:23;6.47;;;5.90;;
18166;SDS011;9208;42.688;23.404;2023-05-10T09:32:50;6.50;;;5.90;;
18166;SDS011;9208;42.688;23.404;2023-05-10T09:35:17;6.37;;;5.70;;
18166;SDS011;9208;42.688;23.404;2023-05-10T09:37:47;6.70;;;5.63;;
18166;SDS011;9208;42.688;23.404;2023-05-10T09:40:15;7.80;;;6.07;;
18166;SDS011;9208;42.688;23.404;2023-05-10T09:42:50;8.17;;;5.97;;
18166;SDS011;9208;42.688;23.404;2023-05-10T09:45:24;8.87;;;6.63;;
18166;SDS011;9208;42.688;23.404;2023-05-10T09:47:50;9.50;;;5.97;;
18166;SDS011;9208;42.688;23.404;2023-05-10T09:50:16;10.83;;;6.03;;
18166;SDS011;9208;42.688;23.404;2023-05-10T09:55:16;9.83;;;6.30;;
18166;SDS011;9208;42.688;23.404;2023-05-10T09:57:42;12.30;;;6.63;;
18166;SDS011;9208;42.688;23.404;2023-05-10T10:00:08;9.30;;;5.53;;
18166;SDS011;9208;42.688;23.404;2023-05-10T10:02:37;7.33;;;5.73;;
18166;SDS011;9208;42.688;23.404;2023-05-10T10:05:04;6.43;;;4.83;;
18166;SDS011;9208;42.688;23.404;2023-05-10T10:07:32;7.83;;;5.07;;
18166;SDS011;9208;42.688;23.404;2023-05-10T10:09:58;6.77;;;4.80;;
18166;SDS011;9208;42.688;23.404;2023-05-10T10:12:25;6.03;;;4.70;;
18166;SDS011;9208;42.688;23.404;2023-05-10T10:14:50;7.47;;;4.80;;
18166;SDS011;9208;42.688;23.404;2023-05-10T10:17:17;4.90;;;4.50;;
18166;SDS011;9208;42.688;23.404;2023-05-10T10:19:44;6.67;;;4.20;;
18166;SDS011;9208;42.688;23.404;2023-05-10T10:22:10;7.73;;;5.10;;
18166;SDS011;9208;42.688;23.404;2023-05-10T10:24:37;4.53;;;4.13;;
18166;SDS011;9208;42.688;23.404;2023-05-10T10:27:09;9.00;;;4.80;;
18166;SDS011;9208;42.688;23.404;2023-05-10T10:35:41;5.90;;;4.27;;
18166;SDS011;9208;42.688;23.404;2023-05-10T10:38:12;11.00;;;4.83;;
18166;SDS011;9208;42.688;23.404;2023-05-10T10:40:42;8.70;;;4.00;;
18166;SDS011;9208;42.688;23.404;2023-05-10T10:49:24;6.30;;;4.60;;
18166;SDS011;9208;42.688;23.404;2023-05-10T10:51:38;5.37;;;4.07;;
18166;SDS011;9208;42.688;23.404;2023-05-10T10:54:11;4.93;;;4.40;;
18166;SDS011;9208;42.688;23.404;2023-05-10T10:56:37;5.73;;;4.17;;
18166;SDS011;9208;42.688;23.404;2023-05-10T10:59:03;5.13;;;4.00;;
18166;SDS011;9208;42.688;23.404;2023-05-10T11:01:34;5.90;;;3.80;;
18166;SDS011;9208;42.688;23.404;2023-05-10T11:06:29;7.27;;;4.10;;
18166;SDS011;9208;42.688;23.404;2023-05-10T11:08:56;6.73;;;4.13;;
18166;SDS011;9208;42.688;23.404;2023-05-10T11:11:22;6.70;;;4.10;;
18166;SDS011;9208;42.688;23.404;2023-05-10T11:13:48;5.43;;;3.90;;
18166;SDS011;9208;42.688;23.404;2023-05-10T11:18:52;6.33;;;3.90;;
18166;SDS011;9208;42.688;23.404;2023-05-10T11:21:31;4.43;;;4.03;;
18166;SDS011;9208;42.688;23.404;2023-05-10T11:23:58;5.73;;;4.40;;
18166;SDS011;9208;42.688;23.404;2023-05-10T11:26:26;5.73;;;4.00;;
18166;SDS011;9208;42.688;23.404;2023-05-10T11:28:56;5.33;;;3.90;;
18166;SDS011;9208;42.688;23.404;2023-05-10T11:31:23;6.00;;;4.17;;
18166;SDS011;9208;42.688;23.404;2023-05-10T11:33:52;4.83;;;4.27;;
18166;SDS011;9208;42.688;23.404;2023-05-10T11:36:26;4.47;;;4.10;;
18166;SDS011;9208;42.688;23.404;2023-05-10T11:38:52;5.27;;;4.20;;
18166;SDS011;9208;42.688;23.404;2023-05-10T11:41:19;6.30;;;4.83;;
18166;SDS011;9208;42.688;23.404;2023-05-10T11:43:51;4.83;;;4.40;;
18166;SDS011;9208;42.688;23.404;2023-05-10T11:46:19;6.40;;;5.40;;
18166;SDS011;9208;42.688;23.404;2023-05-10T11:48:46;5.70;;;5.13;;
18166;SDS011;9208;42.688;23.404;2023-05-10T11:51:14;5.37;;;4.50;;
18166;SDS011;9208;42.688;23.404;2023-05-10T11:53:40;5.60;;;4.60;;
18166;SDS011;9208;42.688;23.404;2023-05-10T11:56:08;4.90;;;4.50;;
18166;SDS011;9208;42.688;23.404;2023-05-10T11:58:36;7.10;;;5.03;;
18166;SDS011;9208;42.688;23.404;2023-05-10T12:01:03;6.27;;;4.20;;
18166;SDS011;9208;42.688;23.404;2023-05-10T12:03:30;4.77;;;4.27;;
18166;SDS011;9208;42.688;23.404;2023-05-10T12:05:56;6.13;;;4.67;;
18166;SDS011;9208;42.688;23.404;2023-05-10T12:08:23;5.00;;;4.37;;
18166;SDS011;9208;42.688;23.404;2023-05-10T12:10:50;5.00;;;4.50;;
18166;SDS011;9208;42.688;23.404;2023-05-10T12:13:17;6.47;;;4.47;;
18166;SDS011;9208;42.688;23.404;2023-05-10T12:15:45;4.60;;;4.20;;
18166;SDS011;9208;42.688;23.404;2023-05-10T12:18:11;5.07;;;4.47;;
18166;SDS011;9208;42.688;23.404;2023-05-10T12:20:38;6.37;;;4.80;;
18166;SDS011;9208;42.688;23.404;2023-05-10T12:23:04;6.53;;;4.53;;
18166;SDS011;9208;42.688;23.404;2023-05-10T12:25:34;7.97;;;5.37;;
18166;SDS011;9208;42.688;23.404;2023-05-10T12:28:03;6.80;;;5.03;;
18166;SDS011;9208;42.688;23.404;2023-05-10T12:30:30;5.33;;;4.93;;
18166;SDS011;9208;42.688;23.404;2023-05-10T12:33:15;5.23;;;4.30;;
18166;SDS011;9208;42.688;23.404;2023-05-10T12:35:46;5.33;;;4.83;;
18166;SDS011;9208;42.688;23.404;2023-05-10T12:38:24;6.57;;;5.23;;
18166;SDS011;9208;42.688;23.404;2023-05-10T12:40:55;5.70;;;5.10;;
18166;SDS011;9208;42.688;23.404;2023-05-10T12:43:21;5.20;;;4.70;;
18166;SDS011;9208;42.688;23.404;2023-05-10T12:45:46;5.40;;;4.80;;
18166;SDS011;9208;42.688;23.404;2023-05-10T12:48:14;6.73;;;5.03;;
18166;SDS011;9208;42.688;23.404;2023-05-10T12:50:40;8.77;;;4.87;;
18166;SDS011;9208;42.688;23.404;2023-05-10T12:53:05;4.53;;;4.13;;
18166;SDS011;9208;42.688;23.404;2023-05-10T12:55:31;5.00;;;4.17;;
18166;SDS011;9208;42.688;23.404;2023-05-10T12:57:56;7.47;;;4.50;;
18166;SDS011;9208;42.688;23.404;2023-05-10T13:00:22;7.27;;;4.80;;
18166;SDS011;9208;42.688;23.404;2023-05-10T13:02:47;6.43;;;4.33;;
18166;SDS011;9208;42.688;23.404;2023-05-10T13:05:13;6.73;;;4.83;;
18166;SDS011;9208;42.688;23.404;2023-05-10T13:07:38;5.40;;;4.80;;
18166;SDS011;9208;42.688;23.404;2023-05-10T13:10:05;4.97;;;4.50;;
18166;SDS011;9208;42.688;23.404;2023-05-10T13:12:31;6.37;;;4.40;;
18166;SDS011;9208;42.688;23.404;2023-05-10T13:14:57;5.67;;;4.57;;
18166;SDS011;9208;42.688;23.404;2023-05-10T13:17:22;5.17;;;4.43;;
18166;SDS011;9208;42.688;23.404;2023-05-10T13:19:51;5.43;;;4.10;;
18166;SDS011;9208;42.688;23.404;2023-05-10T13:22:17;4.50;;;4.10;;
18166;SDS011;9208;42.688;23.404;2023-05-10T13:24:42;8.87;;;4.80;;
18166;SDS011;9208;42.688;23.404;2023-05-10T13:27:08;4.87;;;4.40;;
18166;SDS011;9208;42.688;23.404;2023-05-10T13:29:33;4.60;;;4.20;;
18166;SDS011;9208;42.688;23.404;2023-05-10T13:31:59;5.80;;;4.30;;
18166;SDS011;9208;42.688;23.404;2023-05-10T13:34:25;6.10;;;5.13;;
18166;SDS011;9208;42.688;23.404;2023-05-10T13:36:50;5.37;;;4.80;;
18166;SDS011;9208;42.688;23.404;2023-05-10T13:39:16;8.20;;;5.23;;
18166;SDS011;9208;42.688;23.404;2023-05-10T13:41:41;6.37;;;4.60;;
18166;SDS011;9208;42.688;23.404;2023-05-10T13:44:07;5.50;;;4.83;;
18166;SDS011;9208;42.688;23.404;2023-05-10T13:46:33;7.40;;;5.03;;
18166;SDS011;9208;42.688;23.404;2023-05-10T13:48:58;6.50;;;4.63;;
18166;SDS011;9208;42.688;23.404;2023-05-10T13:51:23;4.80;;;4.40;;
18166;SDS011;9208;42.688;23.404;2023-05-10T13:53:49;8.17;;;4.47;;
18166;SDS011;9208;42.688;23.404;2023-05-10T13:56:15;5.83;;;4.43;;
18166;SDS011;9208;42.688;23.404;2023-05-10T13:58:40;6.60;;;4.77;;
18166;SDS011;9208;42.688;23.404;2023-05-10T14:01:06;6.03;;;4.10;;
18166;SDS011;9208;42.688;23.404;2023-05-10T14:03:32;6.13;;;4.87;;
18166;SDS011;9208;42.688;23.404;2023-05-10T14:05:57;5.03;;;4.30;;
18166;SDS011;9208;42.688;23.404;2023-05-10T14:08:23;9.17;;;4.83;;
18166;SDS011;9208;42.688;23.404;2023-05-10T14:10:48;4.57;;;4.23;;
18166;SDS011;9208;42.688;23.404;2023-05-10T14:13:14;5.63;;;4.80;;
18166;SDS011;9208;42.688;23.404;2023-05-10T14:15:40;4.43;;;4.03;;
18166;SDS011;9208;42.688;23.404;2023-05-10T14:18:06;5.80;;;4.37;;
18166;SDS011;9208;42.688;23.404;2023-05-10T14:20:32;5.20;;;4.70;;
18166;SDS011;9208;42.688;23.404;2023-05-10T14:22:59;4.70;;;4.30;;
18166;SDS011;9208;42.688;23.404;2023-05-10T14:25:25;6.30;;;4.70;;
18166;SDS011;9208;42.688;23.404;2023-05-10T14:27:51;5.50;;;5.00;;
18166;SDS011;9208;42.688;23.404;2023-05-10T14:30:21;6.40;;;5.13;;
18166;SDS011;9208;42.688;23.404;2023-05-10T14:32:47;5.10;;;4.57;;
18166;SDS011;9208;42.688;23.404;2023-05-10T14:35:12;4.80;;;4.40;;
18166;SDS011;9208;42.688;23.404;2023-05-10T14:37:38;6.03;;;4.97;;
18166;SDS011;9208;42.688;23.404;2023-05-10T14:40:04;6.27;;;4.70;;
18166;SDS011;9208;42.688;23.404;2023-05-10T14:42:31;5.77;;;5.10;;
18166;SDS011;9208;42.688;23.404;2023-05-10T14:44:57;8.10;;;4.57;;
18166;SDS011;9208;42.688;23.404;2023-05-10T14:47:22;6.30;;;4.67;;
18166;SDS011;9208;42.688;23.404;2023-05-10T14:49:48;7.90;;;4.67;;
18166;SDS011;9208;42.688;23.404;2023-05-10T14:52:13;6.23;;;4.43;;
18166;SDS011;9208;42.688;23.404;2023-05-10T14:54:41;5.87;;;4.90;;
18166;SDS011;9208;42.688;23.404;2023-05-10T14:57:07;9.57;;;5.13;;
18166;SDS011;9208;42.688;23.404;2023-05-10T14:59:32;7.83;;;5.43;;
18166;SDS011;9208;42.688;23.404;2023-05-10T15:01:58;5.70;;;5.10;;
18166;SDS011;9208;42.688;23.404;2023-05-10T15:04:23;6.20;;;4.70;;
18166;SDS011;9208;42.688;23.404;2023-05-10T15:06:49;18.53;;;7.20;;
18166;SDS011;9208;42.688;23.404;2023-05-10T15:09:14;6.67;;;5.47;;
18166;SDS011;9208;42.688;23.404;2023-05-10T15:11:41;5.93;;;4.47;;
18166;SDS011;9208;42.688;23.404;2023-05-10T15:14:07;5.87;;;5.20;;
18166;SDS011;9208;42.688;23.404;2023-05-10T15:16:32;6.77;;;5.17;;
18166;SDS011;9208;42.688;23.404;2023-05-10T15:18:58;5.30;;;4.37;;
18166;SDS011;9208;42.688;23.404;2023-05-10T15:21:23;5.57;;;4.30;;
18166;SDS011;9208;42.688;23.404;2023-05-10T15:23:48;5.93;;;4.37;;
18166;SDS011;9208;42.688;23.404;2023-05-10T15:26:14;5.67;;;4.60;;
18166;SDS011;9208;42.688;23.404;2023-05-10T15:28:39;7.23;;;4.50;;
18166;SDS011;9208;42.688;23.404;2023-05-10T15:31:05;8.30;;;5.07;;
18166;SDS011;9208;42.688;23.404;2023-05-10T15:33:30;6.40;;;4.73;;
18166;SDS011;9208;42.688;23.404;2023-05-10T15:35:56;8.13;;;5.10;;